createdAt,value
2023-05-05T00:02:25.663Z,100680.94
2023-05-05T00:04:56.549Z,100680.95
2023-05-05T00:07:27.183Z,100679.26
2023-05-05T00:09:58.181Z,100679.88
2023-05-05T00:12:28.970Z,100677.87
2023-05-05T00:14:59.571Z,100675.09
2023-05-05T00:17:30.396Z,100662.46
2023-05-05T00:20:01.540Z,100672.84
2023-05-05T00:22:32.761Z,100669.98
2023-05-05T00:25:04.946Z,100664.71
2023-05-05T00:27:36.028Z,100659.08
2023-05-05T00:30:08.534Z,100660.34
2023-05-05T00:32:39.619Z,100654.78
2023-05-05T00:35:11.369Z,100652.97
2023-05-05T00:37:42.015Z,100648.71
2023-05-05T00:40:14.314Z,100646.55
2023-05-05T00:42:46.945Z,100645.51
2023-05-05T00:45:19.240Z,100647.33
2023-05-05T00:47:52.275Z,100640.08
2023-05-05T00:50:26.225Z,100639.41
2023-05-05T00:52:58.714Z,100636.99
2023-05-05T00:55:28.970Z,100634.98
2023-05-05T00:58:00.516Z,100630.64
2023-05-05T01:00:32.001Z,100628.60
2023-05-05T01:03:03.351Z,100627.60
2023-05-05T01:05:46.656Z,100633.53
2023-05-05T01:08:30.583Z,100631.38
2023-05-05T01:11:04.633Z,100636.36
2023-05-05T01:13:44.041Z,100631.01
2023-05-05T01:16:19.648Z,100631.69
2023-05-05T01:18:55.652Z,100630.33
2023-05-05T01:21:31.902Z,100632.20
2023-05-05T01:24:35.669Z,100637.44
2023-05-05T01:27:35.171Z,100634.55
2023-05-05T01:30:21.227Z,100639.60
2023-05-05T01:32:56.062Z,100640.26
2023-05-05T01:35:31.829Z,100644.20
2023-05-05T01:38:08.993Z,100642.39
2023-05-05T01:40:44.788Z,100645.35
2023-05-05T01:43:20.061Z,100645.93
2023-05-05T01:45:52.750Z,100646.08
2023-05-05T01:48:27.495Z,100642.98
2023-05-05T01:50:58.818Z,100639.77
2023-05-05T01:53:30.449Z,100639.90
2023-05-05T01:56:03.041Z,100635.76
2023-05-05T01:58:35.387Z,100633.52
2023-05-05T02:01:07.163Z,100635.42
2023-05-05T02:03:39.029Z,100633.16
2023-05-05T02:06:11.332Z,100631.94
2023-05-05T02:08:42.761Z,100626.98
2023-05-05T02:11:15.031Z,100622.29
2023-05-05T02:13:47.901Z,100618.20
2023-05-05T02:16:20.473Z,100621.55
2023-05-05T02:18:52.880Z,100618.20
2023-05-05T02:21:24.802Z,100610.59
2023-05-05T02:23:55.832Z,100609.93
2023-05-05T02:26:30.619Z,100611.41
2023-05-05T02:29:07.290Z,100605.32
2023-05-05T02:31:50.356Z,100603.99
2023-05-05T02:34:26.565Z,100599.59
2023-05-05T02:37:01.906Z,100602.27
2023-05-05T02:39:39.409Z,100602.11
2023-05-05T02:42:17.404Z,100601.89
2023-05-05T02:44:49.482Z,100601.95
2023-05-05T02:47:21.342Z,100602.70
2023-05-05T02:49:53.231Z,100605.77
2023-05-05T02:52:23.918Z,100610.31
2023-05-05T02:54:54.698Z,100613.95
2023-05-05T02:57:33.129Z,100617.80
2023-05-05T03:00:09.591Z,100621.92
2023-05-05T03:02:52.290Z,100620.86
2023-05-05T03:05:25.235Z,100621.52
2023-05-05T03:08:03.248Z,100618.11
2023-05-05T03:10:42.665Z,100615.66
2023-05-05T03:13:17.882Z,100612.58
2023-05-05T03:15:52.572Z,100612.80
2023-05-05T03:18:27.038Z,100615.57
2023-05-05T03:21:08.058Z,100613.50
2023-05-05T03:23:39.998Z,100612.82
2023-05-05T03:26:17.693Z,100612.64
2023-05-05T03:28:48.759Z,100610.23
2023-05-05T03:31:23.630Z,100610.14
2023-05-05T03:33:57.679Z,100614.64
2023-05-05T03:36:30.871Z,100613.98
2023-05-05T03:39:01.997Z,100614.85
2023-05-05T03:41:34.976Z,100618.02
2023-05-05T03:44:06.665Z,100618.13
2023-05-05T03:46:37.573Z,100615.40
2023-05-05T03:49:09.896Z,100615.50
2023-05-05T03:51:40.957Z,100618.43
2023-05-05T03:54:11.972Z,100615.31
2023-05-05T03:56:42.684Z,100616.67
2023-05-05T03:59:13.333Z,100617.49
2023-05-05T04:01:45.123Z,100625.11
2023-05-05T04:04:16.112Z,100623.90
2023-05-05T04:06:46.875Z,100626.68
2023-05-05T04:09:17.822Z,100624.79
2023-05-05T04:11:48.823Z,100623.34
2023-05-05T04:14:20.198Z,100616.55
2023-05-05T04:16:51.972Z,100620.97
2023-05-05T04:19:23.011Z,100623.89
2023-05-05T04:21:53.735Z,100622.67
2023-05-05T04:24:25.009Z,100620.58
2023-05-05T04:26:57.288Z,100628.16
2023-05-05T04:29:28.305Z,100625.71
2023-05-05T04:32:01.178Z,100623.75
2023-05-05T04:34:32.768Z,100619.27
2023-05-05T04:37:04.099Z,100616.16
2023-05-05T04:39:34.942Z,100616.54
2023-05-05T04:42:06.536Z,100625.57
2023-05-05T04:44:37.812Z,100630.20
2023-05-05T04:47:08.489Z,100637.16
2023-05-05T04:49:39.936Z,100636.34
2023-05-05T04:52:12.846Z,100634.77
2023-05-05T04:54:43.832Z,100634.02
2023-05-05T04:57:14.529Z,100635.32
2023-05-05T04:59:45.569Z,100635.89
2023-05-05T05:02:16.722Z,100631.19
2023-05-05T05:04:47.568Z,100630.14
2023-05-05T05:07:18.474Z,100626.77
2023-05-05T05:09:49.112Z,100628.58
2023-05-05T05:12:21.003Z,100626.58
2023-05-05T05:14:51.810Z,100627.90
2023-05-05T05:17:25.334Z,100625.30
2023-05-05T05:19:56.658Z,100627.72
2023-05-05T05:22:27.394Z,100631.35
2023-05-05T05:24:58.038Z,100634.30
2023-05-05T05:27:28.801Z,100635.64
2023-05-05T05:29:59.804Z,100628.14
2023-05-05T05:32:31.263Z,100629.10
2023-05-05T05:35:02.415Z,100627.86
2023-05-05T05:37:34.944Z,100631.30
2023-05-05T05:40:08.296Z,100637.92
2023-05-05T05:42:40.045Z,100636.92
2023-05-05T05:45:12.486Z,100632.11
2023-05-05T05:47:43.397Z,100633.70
2023-05-05T05:50:15.252Z,100628.55
2023-05-05T05:52:46.259Z,100632.23
2023-05-05T05:55:16.964Z,100629.71
2023-05-05T05:57:47.806Z,100623.73
2023-05-05T06:00:20.235Z,100627.39
2023-05-05T06:02:53.376Z,100627.98
2023-05-05T06:05:27.010Z,100631.58
2023-05-05T06:07:58.749Z,100630.01
2023-05-05T06:10:30.010Z,100629.61
2023-05-05T06:13:08.108Z,100629.64
2023-05-05T06:15:39.858Z,100629.08
2023-05-05T06:18:11.101Z,100628.91
2023-05-05T06:20:43.517Z,100626.64
2023-05-05T06:23:15.279Z,100628.99
2023-05-05T06:25:50.854Z,100625.22
2023-05-05T06:28:21.490Z,100625.06
2023-05-05T06:30:52.044Z,100623.55
2023-05-05T06:33:22.759Z,100622.31
2023-05-05T06:35:54.393Z,100622.13
2023-05-05T06:38:25.150Z,100615.18
2023-05-05T06:40:58.485Z,100615.14
2023-05-05T06:43:29.471Z,100613.77
2023-05-05T06:46:02.873Z,100614.20
2023-05-05T06:48:33.653Z,100613.58
2023-05-05T06:51:04.490Z,100607.36
2023-05-05T06:53:35.541Z,100611.10
2023-05-05T06:56:06.919Z,100605.49
2023-05-05T06:58:37.993Z,100600.55
2023-05-05T07:01:08.844Z,100595.77
2023-05-05T07:03:39.837Z,100597.48
2023-05-05T07:06:11.416Z,100597.14
2023-05-05T07:08:42.246Z,100599.54
2023-05-05T07:11:12.929Z,100600.18
2023-05-05T07:13:43.520Z,100600.09
2023-05-05T07:16:14.290Z,100597.09
2023-05-05T07:18:45.006Z,100594.58
2023-05-05T07:21:15.943Z,100598.35
2023-05-05T07:23:47.836Z,100588.30
2023-05-05T07:26:17.206Z,100593.52
2023-05-05T07:28:48.047Z,100587.90
2023-05-05T07:31:19.310Z,100587.30
2023-05-05T07:33:50.786Z,100588.66
2023-05-05T07:36:22.241Z,100589.49
2023-05-05T07:38:52.925Z,100588.05
2023-05-05T07:41:23.652Z,100593.45
2023-05-05T07:43:54.247Z,100589.88
2023-05-05T07:46:24.930Z,100589.04
2023-05-05T07:48:55.540Z,100586.65
2023-05-05T07:51:26.514Z,100584.56
2023-05-05T07:53:57.944Z,100581.37
2023-05-05T07:56:28.759Z,100580.04
2023-05-05T07:58:59.602Z,100579.99
2023-05-05T08:01:30.410Z,100576.96
2023-05-05T08:04:01.276Z,100581.95
2023-05-05T08:06:33.896Z,100578.86
2023-05-05T08:09:05.274Z,100582.19
2023-05-05T08:11:36.019Z,100576.31
2023-05-05T08:14:08.016Z,100573.13
2023-05-05T08:16:38.714Z,100573.13
2023-05-05T08:19:21.081Z,100569.40
2023-05-05T08:22:01.078Z,100571.52
2023-05-05T08:24:32.059Z,100575.45
2023-05-05T08:27:02.671Z,100566.11
2023-05-05T08:29:33.236Z,100561.89
2023-05-05T08:32:03.925Z,100566.17
2023-05-05T08:34:34.612Z,100561.62
2023-05-05T08:37:05.292Z,100564.70
2023-05-05T08:39:36.048Z,100556.21
2023-05-05T08:42:07.308Z,100547.02
2023-05-05T08:44:38.118Z,100549.80
2023-05-05T08:47:11.759Z,100550.29
2023-05-05T08:49:45.907Z,100552.02
2023-05-05T08:52:19.479Z,100548.63
2023-05-05T08:54:56.157Z,100543.95
2023-05-05T08:57:33.773Z,100542.77
2023-05-05T09:00:05.623Z,100546.30
2023-05-05T09:02:35.160Z,100541.36
2023-05-05T09:05:07.394Z,100544.13
2023-05-05T09:07:41.410Z,100542.84
2023-05-05T09:10:13.689Z,100538.13
2023-05-05T09:12:44.824Z,100535.58
2023-05-05T09:15:16.348Z,100537.65
2023-05-05T09:17:46.984Z,100534.31
2023-05-05T09:20:18.291Z,100532.20
2023-05-05T09:22:49.419Z,100532.62
2023-05-05T09:25:20.869Z,100531.90
2023-05-05T09:27:51.875Z,100534.10
2023-05-05T09:30:28.011Z,100537.46
2023-05-05T09:32:58.656Z,100533.68
2023-05-05T09:35:30.019Z,100545.42
2023-05-05T09:38:11.880Z,100546.52
2023-05-05T09:40:49.316Z,100541.51
2023-05-05T09:43:21.898Z,100538.03
2023-05-05T09:45:52.741Z,100530.14
2023-05-05T09:48:31.117Z,100542.52
2023-05-05T09:51:02.345Z,100543.98
2023-05-05T09:53:42.285Z,100544.38
2023-05-05T09:56:13.399Z,100541.64
2023-05-05T09:58:44.024Z,100532.83
2023-05-05T10:01:24.488Z,100531.01
2023-05-05T10:03:55.270Z,100537.17
2023-05-05T10:06:47.210Z,100531.42
2023-05-05T10:09:17.845Z,100525.63
2023-05-05T10:11:49.981Z,100523.48
2023-05-05T10:14:21.141Z,100521.60
2023-05-05T10:16:53.303Z,100520.10
2023-05-05T10:19:25.207Z,100515.84
2023-05-05T10:22:00.916Z,100514.87
2023-05-05T10:24:40.388Z,100510.65
2023-05-05T10:27:16.485Z,100509.07
2023-05-05T10:29:56.068Z,100502.79
2023-05-05T10:32:56.843Z,100504.92
2023-05-05T10:35:27.265Z,100512.05
2023-05-05T10:38:01.208Z,100502.52
2023-05-05T10:40:33.959Z,100496.45
2023-05-05T10:43:05.185Z,100500.63
2023-05-05T10:45:36.207Z,100488.49
2023-05-05T10:48:11.689Z,100497.97
2023-05-05T10:50:50.190Z,100490.77
2023-05-05T10:53:24.823Z,100487.34
2023-05-05T10:56:12.986Z,100490.27
2023-05-05T10:58:58.937Z,100479.08
2023-05-05T11:01:35.156Z,100484.26
2023-05-05T11:04:23.356Z,100479.36
2023-05-05T11:07:25.966Z,100480.65
2023-05-05T11:10:01.903Z,100475.17
2023-05-05T11:12:34.658Z,100479.06
2023-05-05T11:15:38.581Z,100472.16
2023-05-05T11:18:28.702Z,100475.15
2023-05-05T11:21:16.559Z,100470.16
2023-05-05T11:23:49.121Z,100468.38
2023-05-05T11:26:41.329Z,100457.74
2023-05-05T11:29:11.996Z,100460.11
2023-05-05T11:31:42.692Z,100459.23
2023-05-05T11:34:29.733Z,100456.05
2023-05-05T11:37:04.129Z,100450.95
2023-05-05T11:39:48.405Z,100445.11
2023-05-05T11:42:26.611Z,100449.46
2023-05-05T11:44:57.759Z,100445.67
2023-05-05T11:47:32.461Z,100443.45
2023-05-05T11:50:18.868Z,100445.05
2023-05-05T11:52:50.145Z,100442.85
2023-05-05T11:55:24.422Z,100433.13
2023-05-05T11:57:55.078Z,100443.07
2023-05-05T12:00:35.235Z,100443.28
2023-05-05T12:03:06.554Z,100428.98
2023-05-05T12:05:37.438Z,100440.13
2023-05-05T12:08:08.508Z,100432.33
2023-05-05T12:10:39.197Z,100425.09
2023-05-05T12:13:20.650Z,100419.39
2023-05-05T12:15:51.482Z,100417.63
2023-05-05T12:18:22.769Z,100418.29
2023-05-05T12:20:53.470Z,100421.69
2023-05-05T12:23:27.337Z,100422.13
2023-05-05T12:25:58.329Z,100422.67
2023-05-05T12:28:46.322Z,100418.26
2023-05-05T12:31:16.989Z,100417.81
2023-05-05T12:33:48.151Z,100424.52
2023-05-05T12:36:19.385Z,100422.98
2023-05-05T12:38:50.567Z,100427.30
2023-05-05T12:41:22.489Z,100415.59
2023-05-05T12:43:57.801Z,100419.30
2023-05-05T12:46:29.734Z,100412.38
2023-05-05T12:49:05.779Z,100417.12
2023-05-05T12:51:37.190Z,100411.55
2023-05-05T12:54:09.853Z,100409.66
2023-05-05T12:56:41.956Z,100403.09
2023-05-05T12:59:13.392Z,100400.98
2023-05-05T13:01:53.316Z,100400.48
2023-05-05T13:04:25.757Z,100392.81
2023-05-05T13:07:13.112Z,100387.91
2023-05-05T13:09:44.624Z,100391.69
2023-05-05T13:12:15.638Z,100396.80
2023-05-05T13:14:46.631Z,100391.35
2023-05-05T13:17:18.273Z,100389.17
2023-05-05T13:19:48.903Z,100389.88
2023-05-05T13:22:20.529Z,100383.11
2023-05-05T13:24:52.825Z,100383.48
2023-05-05T13:27:23.737Z,100375.33
2023-05-05T13:29:54.410Z,100372.82
2023-05-05T13:32:25.120Z,100371.04
2023-05-05T13:34:55.766Z,100367.66
2023-05-05T13:37:26.408Z,100362.73
2023-05-05T13:40:00.347Z,100364.39
2023-05-05T13:42:30.990Z,100358.16
2023-05-05T13:45:01.707Z,100360.48
2023-05-05T13:47:32.527Z,100354.48
2023-05-05T13:50:03.346Z,100347.60
2023-05-05T13:52:34.061Z,100340.95
2023-05-05T13:55:05.245Z,100334.95
2023-05-05T13:57:35.884Z,100337.41
2023-05-05T14:00:09.446Z,100336.80
2023-05-05T14:02:40.537Z,100336.50
2023-05-05T14:05:12.887Z,100336.73
2023-05-05T14:07:43.532Z,100336.35
2023-05-05T14:10:14.582Z,100331.63
2023-05-05T14:12:45.457Z,100328.05
2023-05-05T14:15:16.409Z,100319.67
2023-05-05T14:17:47.251Z,100318.78
2023-05-05T14:20:17.852Z,100313.46
2023-05-05T14:22:49.388Z,100316.92
2023-05-05T14:25:20.414Z,100317.02
2023-05-05T14:27:51.057Z,100318.29
2023-05-05T14:30:21.670Z,100317.52
2023-05-05T14:32:52.342Z,100309.56
2023-05-05T14:35:23.017Z,100314.70
2023-05-05T14:37:53.649Z,100311.20
2023-05-05T14:40:24.503Z,100304.87
2023-05-05T14:42:55.176Z,100305.42
2023-05-05T14:45:26.463Z,100303.44
2023-05-05T14:47:57.485Z,100301.77
2023-05-05T14:50:28.433Z,100307.07
2023-05-05T14:52:59.032Z,100304.23
2023-05-05T14:55:29.917Z,100303.42
2023-05-05T14:58:00.515Z,100303.14
2023-05-05T15:00:31.095Z,100297.77
2023-05-05T15:03:01.943Z,100293.14
2023-05-05T15:05:32.720Z,100287.86
2023-05-05T15:08:03.354Z,100287.17
2023-05-05T15:10:33.974Z,100287.31
2023-05-05T15:13:04.745Z,100285.58
2023-05-05T15:15:35.208Z,100281.89
2023-05-05T15:18:06.464Z,100281.02
2023-05-05T15:20:37.225Z,100275.98
2023-05-05T15:23:08.101Z,100279.42
2023-05-05T15:25:38.836Z,100278.46
2023-05-05T15:28:09.678Z,100279.84
2023-05-05T15:30:40.388Z,100276.44
2023-05-05T15:33:11.895Z,100272.61
2023-05-05T15:35:42.793Z,100271.44
2023-05-05T15:38:13.505Z,100276.11
2023-05-05T15:40:49.534Z,100270.24
2023-05-05T15:43:21.027Z,100266.92
2023-05-05T15:45:54.517Z,100269.67
2023-05-05T15:48:25.136Z,100269.33
2023-05-05T15:50:55.870Z,100271.07
2023-05-05T15:53:26.968Z,100271.63
2023-05-05T15:55:57.556Z,100265.83
2023-05-05T15:58:28.258Z,100269.66
2023-05-05T16:00:59.460Z,100262.92
2023-05-05T16:03:31.084Z,100265.89
2023-05-05T16:06:02.076Z,100258.02
2023-05-05T16:08:32.799Z,100261.94
2023-05-05T16:11:03.375Z,100258.73
2023-05-05T16:13:34.053Z,100256.73
2023-05-05T16:16:04.993Z,100259.98
2023-05-05T16:18:35.605Z,100251.16
2023-05-05T16:21:06.697Z,100257.08
2023-05-05T16:23:37.682Z,100258.11
2023-05-05T16:26:08.462Z,100251.64
2023-05-05T16:28:39.503Z,100248.63
2023-05-05T16:31:10.871Z,100250.51
2023-05-05T16:33:43.742Z,100250.08
2023-05-05T16:36:14.784Z,100253.21
2023-05-05T16:38:45.632Z,100250.66
2023-05-05T16:41:16.368Z,100252.34
2023-05-05T16:43:47.332Z,100246.20
2023-05-05T16:46:18.278Z,100240.13
2023-05-05T16:48:49.122Z,100237.54
2023-05-05T16:51:19.847Z,100241.94
2023-05-05T16:53:50.549Z,100243.16
2023-05-05T16:56:21.246Z,100246.36
2023-05-05T16:58:52.542Z,100246.65
2023-05-05T17:01:23.409Z,100245.02
2023-05-05T17:03:55.361Z,100250.02
2023-05-05T17:06:26.773Z,100247.05
2023-05-05T17:08:57.454Z,100245.45
2023-05-05T17:11:28.266Z,100244.07
2023-05-05T17:13:59.092Z,100244.45
2023-05-05T17:16:29.794Z,100243.94
2023-05-05T17:19:00.634Z,100240.84
2023-05-05T17:21:31.370Z,100242.54
2023-05-05T17:24:02.262Z,100241.98
2023-05-05T17:26:33.561Z,100242.14
2023-05-05T17:29:04.222Z,100240.08
2023-05-05T17:31:34.932Z,100239.06
2023-05-05T17:34:05.734Z,100240.12
2023-05-05T17:36:36.922Z,100236.58
2023-05-05T17:39:07.718Z,100236.52
2023-05-05T17:41:42.495Z,100232.92
2023-05-05T17:44:13.207Z,100235.63
2023-05-05T17:46:43.884Z,100234.05
2023-05-05T17:49:14.554Z,100230.73
2023-05-05T17:51:45.264Z,100228.70
2023-05-05T17:54:16.246Z,100230.96
2023-05-05T17:56:46.968Z,100237.10
2023-05-05T17:59:17.693Z,100232.77
2023-05-05T18:01:48.401Z,100233.73
2023-05-05T18:04:19.266Z,100239.86
2023-05-05T18:06:50.025Z,100241.20
2023-05-05T18:09:20.707Z,100246.00
2023-05-05T18:11:54.451Z,100241.03
2023-05-05T18:14:25.070Z,100240.60
2023-05-05T18:16:55.847Z,100238.45
2023-05-05T18:19:26.723Z,100240.90
2023-05-05T18:21:57.524Z,100235.29
2023-05-05T18:24:28.780Z,100238.46
2023-05-05T18:26:59.673Z,100243.96
2023-05-05T18:29:30.294Z,100243.92
2023-05-05T18:32:00.965Z,100252.02
2023-05-05T18:34:31.645Z,100250.37
2023-05-05T18:37:02.274Z,100252.23
2023-05-05T18:39:33.033Z,100252.25
2023-05-05T18:42:03.871Z,100257.70
2023-05-05T18:44:35.168Z,100265.75
2023-05-05T18:47:06.894Z,100266.48
2023-05-05T18:49:37.924Z,100263.15
2023-05-05T18:52:08.756Z,100261.08
2023-05-05T18:54:39.354Z,100262.56
2023-05-05T18:57:10.075Z,100260.52
2023-05-05T18:59:40.761Z,100263.55
2023-05-05T19:02:11.410Z,100271.16
2023-05-05T19:04:43.578Z,100269.98
2023-05-05T19:07:23.876Z,100266.17
2023-05-05T19:10:02.390Z,100270.23
2023-05-05T19:12:33.215Z,100269.73
2023-05-05T19:15:03.965Z,100271.10
2023-05-05T19:17:35.019Z,100270.71
2023-05-05T19:20:06.874Z,100271.16
2023-05-05T19:22:37.647Z,100274.00
2023-05-05T19:25:10.045Z,100272.21
2023-05-05T19:27:40.866Z,100274.63
2023-05-05T19:30:13.311Z,100274.15
2023-05-05T19:32:44.645Z,100276.13
2023-05-05T19:35:15.537Z,100279.55
2023-05-05T19:37:46.287Z,100277.42
2023-05-05T19:40:17.044Z,100275.19
2023-05-05T19:42:47.788Z,100273.21
2023-05-05T19:45:19.139Z,100283.31
2023-05-05T19:47:49.805Z,100279.27
2023-05-05T19:50:21.308Z,100282.47
2023-05-05T19:52:52.241Z,100277.06
2023-05-05T19:55:24.440Z,100279.36
2023-05-05T19:57:53.752Z,100280.84
2023-05-05T20:00:24.666Z,100277.25
2023-05-05T20:02:55.346Z,100276.42
2023-05-05T20:05:26.387Z,100273.89
2023-05-05T20:07:57.295Z,100274.43
2023-05-05T20:10:27.932Z,100269.64
2023-05-05T20:12:58.635Z,100264.88
2023-05-05T20:15:31.211Z,100265.83
2023-05-05T20:18:02.031Z,100262.90
2023-05-05T20:20:33.199Z,100261.06
2023-05-05T20:23:03.986Z,100258.42
2023-05-05T20:25:34.686Z,100259.84
2023-05-05T20:28:05.647Z,100255.28
2023-05-05T20:30:36.352Z,100251.52
2023-05-05T20:33:07.268Z,100254.46
2023-05-05T20:35:38.163Z,100256.85
2023-05-05T20:38:09.730Z,100252.27
2023-05-05T20:40:40.974Z,100249.09
2023-05-05T20:43:12.042Z,100253.20
2023-05-05T20:45:42.983Z,100252.97
2023-05-05T20:48:13.685Z,100251.37
2023-05-05T20:50:44.801Z,100247.80
2023-05-05T20:53:15.552Z,100246.83
2023-05-05T20:55:46.093Z,100248.64
2023-05-05T20:58:17.041Z,100253.77
2023-05-05T21:00:47.850Z,100250.48
2023-05-05T21:03:18.719Z,100253.29
2023-05-05T21:05:49.862Z,100259.02
2023-05-05T21:08:20.654Z,100249.36
2023-05-05T21:10:51.541Z,100254.02
2023-05-05T21:13:22.936Z,100252.42
2023-05-05T21:15:53.904Z,100247.02
2023-05-05T21:18:25.810Z,100243.88
2023-05-05T21:20:56.516Z,100247.31
2023-05-05T21:23:27.334Z,100245.63
2023-05-05T21:25:58.133Z,100240.59
2023-05-05T21:28:28.749Z,100236.56
2023-05-05T21:31:20.414Z,100230.34
2023-05-05T21:33:50.040Z,100227.55
2023-05-05T21:36:21.282Z,100223.30
2023-05-05T21:38:55.506Z,100222.17
2023-05-05T21:41:26.942Z,100223.09
2023-05-05T21:43:59.135Z,100221.27
2023-05-05T21:46:28.180Z,100220.05
2023-05-05T21:48:58.788Z,100221.55
2023-05-05T21:51:29.345Z,100216.30
2023-05-05T21:54:00.014Z,100213.42
2023-05-05T21:56:30.625Z,100206.78
2023-05-05T21:59:02.076Z,100204.30
2023-05-05T22:01:33.002Z,100211.02
2023-05-05T22:04:03.926Z,100207.45
2023-05-05T22:06:34.681Z,100204.16
2023-05-05T22:09:05.380Z,100205.20
2023-05-05T22:11:36.197Z,100197.53
2023-05-05T22:14:06.885Z,100200.67
2023-05-05T22:16:37.772Z,100208.73
2023-05-05T22:19:08.494Z,100219.68
2023-05-05T22:21:39.089Z,100224.80
2023-05-05T22:24:10.209Z,100229.27
2023-05-05T22:26:43.272Z,100234.35
2023-05-05T22:29:14.203Z,100233.31
2023-05-05T22:31:45.070Z,100240.17
2023-05-05T22:34:18.732Z,100243.02
2023-05-05T22:36:49.893Z,100247.37
2023-05-05T22:39:20.563Z,100249.73
2023-05-05T22:41:51.168Z,100255.70
2023-05-05T22:44:21.875Z,100259.59
2023-05-05T22:46:52.972Z,100266.70
2023-05-05T22:49:24.252Z,100276.91
2023-05-05T22:51:55.189Z,100284.21
2023-05-05T22:54:25.929Z,100280.85
2023-05-05T22:56:56.469Z,100283.58
2023-05-05T22:59:27.217Z,100284.73
2023-05-05T23:01:57.958Z,100288.44
2023-05-05T23:04:28.658Z,100292.15
2023-05-05T23:06:59.268Z,100297.09
2023-05-05T23:09:29.989Z,100305.26
2023-05-05T23:12:00.916Z,100310.20
2023-05-05T23:14:31.976Z,100312.50
2023-05-05T23:17:02.759Z,100309.70
2023-05-05T23:19:34.643Z,100302.28
2023-05-05T23:22:05.913Z,100296.88
2023-05-05T23:24:36.759Z,100286.46
2023-05-05T23:27:07.383Z,100292.17
2023-05-05T23:29:38.308Z,100296.34
2023-05-05T23:32:09.473Z,100301.79
2023-05-05T23:34:40.148Z,100297.40
2023-05-05T23:37:10.735Z,100299.04
2023-05-05T23:39:41.349Z,100295.48
2023-05-05T23:42:12.110Z,100294.16
2023-05-05T23:44:42.720Z,100294.50
2023-05-05T23:47:13.520Z,100298.28
2023-05-05T23:49:44.145Z,100297.40
2023-05-05T23:52:15.332Z,100292.09
2023-05-05T23:54:47.362Z,100290.14
2023-05-05T23:57:18.089Z,100294.58
2023-05-05T23:59:48.693Z,100292.92
